Time;durP1;ratioP1;P1;durP2;ratioP2;P2;SDS_P1;SDS_P2;PMS_P1;PMS_P2;Temp;Humidity;BMP_temperature;BMP_pressure;BME280_temperature;BME280_humidity;BME280_pressure;Samples;Min_cycle;Max_cycle;Signal;HPM_P1;HPM_P2
2023/03/17 00:02:07;;;;;;;11.45;3.10;;;;;;;10.88;100.00;99442.88;5082474;28;20377;-80
2023/03/17 00:04:32;;;;;;;6.68;2.83;;;;;;;10.88;100.00;99453.97;5097749;27;20042;-80
2023/03/17 00:06:58;;;;;;;8.00;2.70;;;;;;;10.85;100.00;99460.19;5086119;27;20027;-80
2023/03/17 00:09:24;;;;;;;11.13;3.28;;;;;;;10.80;100.00;99454.75;5084429;27;20035;-80
2023/03/17 00:11:49;;;;;;;8.13;2.63;;;;;;;10.80;100.00;99445.63;5099354;28;20098;-80
2023/03/17 00:14:15;;;;;;;10.10;3.53;;;;;;;10.78;100.00;99432.06;5080644;27;20027;-80
2023/03/17 00:16:43;;;;;;;8.57;2.92;;;;;;;10.77;100.00;99430.41;5065576;28;20127;-80
2023/03/17 00:19:16;;;;;;;9.57;3.03;;;;;;;10.74;100.00;99409.66;5067609;27;20070;-80
2023/03/17 00:21:41;;;;;;;;;;;;;;;10.72;100.00;99411.94;5099307;28;20654;-80
2023/03/17 00:24:10;;;;;;;8.63;2.88;;;;;;;10.71;100.00;99429.75;5099001;27;19914;-80
2023/03/17 00:26:35;;;;;;;7.93;2.92;;;;;;;10.71;100.00;99428.94;5102822;27;20027;-80
2023/03/17 00:29:01;;;;;;;8.52;3.50;;;;;;;10.69;100.00;99428.44;5085745;27;20595;-81
2023/03/17 00:31:27;;;;;;;10.35;2.55;;;;;;;10.67;100.00;99419.59;5110549;28;20016;-80
2023/03/17 00:33:53;;;;;;;9.60;3.60;;;;;;;10.61;100.00;99426.44;5095497;27;20085;-81
2023/03/17 00:36:23;;;;;;;6.70;2.88;;;;;;;10.61;100.00;99420.88;5082342;28;20035;-80
2023/03/17 00:38:49;;;;;;;9.68;2.90;;;;;;;10.59;100.00;99414.84;5096098;27;20030;-80
2023/03/17 00:41:14;;;;;;;10.45;3.55;;;;;;;10.56;100.00;99404.34;5081432;28;20407;-80
2023/03/17 00:43:40;;;;;;;7.63;3.38;;;;;;;10.53;100.00;99400.28;5083632;27;20032;-80
2023/03/17 00:46:34;;;;;;;6.90;3.05;;;;;;;10.52;100.00;99402.22;5098610;28;20063;-80
2023/03/17 00:49:00;;;;;;;9.13;3.25;;;;;;;10.50;100.00;99407.31;5046525;28;20090;-80
2023/03/17 00:51:26;;;;;;;10.15;3.50;;;;;;;10.48;100.00;99412.34;5074928;28;20020;-80
2023/03/17 00:53:52;;;;;;;11.68;3.28;;;;;;;10.48;100.00;99417.09;5064762;28;20113;-80
2023/03/17 00:56:19;;;;;;;6.65;3.03;;;;;;;10.40;100.00;99415.91;5081550;28;20020;-80
2023/03/17 00:58:45;;;;;;;8.70;3.30;;;;;;;10.42;100.00;99419.19;5052508;28;20027;-80
2023/03/17 01:01:11;;;;;;;12.02;3.40;;;;;;;10.38;100.00;99418.16;5081314;28;20038;-80
2023/03/17 01:03:37;;;;;;;8.55;3.20;;;;;;;10.37;100.00;99421.28;5081656;28;20049;-80
2023/03/17 01:06:03;;;;;;;7.90;3.42;;;;;;;10.37;100.00;99405.44;5078407;28;20032;-80
2023/03/17 01:08:29;;;;;;;8.40;3.03;;;;;;;10.37;100.00;99401.84;5078012;28;20053;-80
2023/03/17 01:10:55;;;;;;;12.70;3.47;;;;;;;10.36;100.00;99392.69;5078623;28;20443;-80
2023/03/17 01:13:21;;;;;;;12.68;3.72;;;;;;;10.35;100.00;99393.03;5077616;28;20106;-81
2023/03/17 01:15:47;;;;;;;8.57;3.20;;;;;;;10.34;100.00;99389.44;5075269;28;20032;-80
2023/03/17 01:18:14;;;;;;;10.07;3.63;;;;;;;10.33;100.00;99393.31;5081222;28;20495;-80
2023/03/17 01:20:41;;;;;;;9.15;4.03;;;;;;;10.33;100.00;99396.09;5062071;28;20062;-80
2023/03/17 01:23:07;;;;;;;10.55;2.80;;;;;;;10.33;100.00;99376.69;5073336;28;20096;-80
2023/03/17 01:25:33;;;;;;;8.73;3.10;;;;;;;10.28;100.00;99365.75;5060353;28;20031;-80
2023/03/17 01:27:58;;;;;;;8.50;3.28;;;;;;;10.28;100.00;99362.97;5097985;28;20084;-80
2023/03/17 01:30:24;;;;;;;9.25;3.17;;;;;;;10.27;100.00;99364.91;5093834;28;20035;-80
2023/03/17 01:32:50;;;;;;;11.55;3.30;;;;;;;10.27;100.00;99372.41;5095345;28;20036;-80
2023/03/17 01:35:16;;;;;;;13.32;3.40;;;;;;;10.27;100.00;99389.88;5069510;28;20039;-79
2023/03/17 01:37:42;;;;;;;9.55;3.40;;;;;;;10.27;100.00;99377.97;5094777;28;20039;-80
2023/03/17 01:40:11;;;;;;;11.40;3.80;;;;;;;10.25;100.00;99375.50;5056270;28;20038;-80
2023/03/17 01:42:37;;;;;;;8.57;3.47;;;;;;;10.22;100.00;99369.75;5068164;28;20074;-80
2023/03/17 01:45:07;;;;;;;14.98;3.65;;;;;;;10.21;100.00;99374.47;5064128;28;20036;-80
2023/03/17 01:47:32;;;;;;;8.90;3.50;;;;;;;10.21;100.00;99371.69;5089762;28;20054;-80
2023/03/17 01:50:07;;;;;;;6.82;3.20;;;;;;;10.19;100.00;99382.28;5060777;28;20032;-79
2023/03/17 01:52:37;;;;;;;10.27;3.45;;;;;;;10.19;100.00;99381.47;5043959;28;20392;-80
2023/03/17 01:55:05;;;;;;;12.65;2.85;;;;;;;10.16;100.00;99377.38;5077253;28;20034;-80
2023/03/17 01:57:36;;;;;;;7.00;3.58;;;;;;;10.17;100.00;99378.19;5072264;28;20504;-80
2023/03/17 02:00:15;;;;;;;15.48;3.00;;;;;;;10.15;100.00;99341.66;5042057;28;20100;-80
2023/03/17 02:02:42;;;;;;;7.55;3.15;;;;;;;10.13;100.00;99332.81;5040203;28;20786;-79
2023/03/17 02:05:11;;;;;;;11.68;3.83;;;;;;;10.13;100.00;99343.91;5080956;28;20027;-80
2023/03/17 02:07:37;;;;;;;7.95;3.38;;;;;;;10.11;100.00;99341.47;5061120;28;20472;-80
2023/03/17 02:10:03;;;;;;;9.20;3.55;;;;;;;10.10;100.00;99341.78;5066525;28;20028;-80
2023/03/17 02:12:29;;;;;;;10.35;3.05;;;;;;;10.11;100.00;99344.22;5044363;28;20051;-80
2023/03/17 02:14:55;;;;;;;12.35;3.78;;;;;;;10.10;100.00;99327.91;5063792;28;20028;-80
2023/03/17 02:17:21;;;;;;;13.57;3.90;;;;;;;10.04;100.00;99327.25;5061136;28;20024;-80
2023/03/17 02:19:47;;;;;;;12.05;3.90;;;;;;;10.01;100.00;99325.13;5044013;28;20515;-79
2023/03/17 02:22:13;;;;;;;11.88;3.67;;;;;;;9.96;100.00;99337.16;5072332;28;20025;-80
2023/03/17 02:24:42;;;;;;;8.13;3.45;;;;;;;9.99;100.00;99335.69;5064920;28;20031;-80
2023/03/17 02:27:11;;;;;;;12.07;3.40;;;;;;;9.99;100.00;99342.06;5040930;28;20028;-80
2023/03/17 02:29:38;;;;;;;9.70;3.78;;;;;;;10.00;100.00;99343.72;5077070;28;20024;-80
2023/03/17 02:32:04;;;;;;;5.50;2.75;;;;;;;9.99;100.00;99333.72;5075775;28;20024;-80
2023/03/17 02:34:30;;;;;;;7.32;3.30;;;;;;;10.00;100.00;99334.56;5078577;28;20047;-80
2023/03/17 02:36:56;;;;;;;11.10;3.35;;;;;;;10.00;100.00;99338.16;5045408;28;20024;-79
2023/03/17 02:39:21;;;;;;;7.80;3.30;;;;;;;10.02;100.00;99326.75;5063364;28;20110;-79
2023/03/17 02:41:47;;;;;;;8.02;3.08;;;;;;;10.01;100.00;99330.66;5099661;28;20016;-79
2023/03/17 02:44:12;;;;;;;10.75;3.03;;;;;;;10.01;100.00;99337.00;5063303;28;20035;-80
2023/03/17 02:46:38;;;;;;;8.48;3.38;;;;;;;10.00;100.00;99338.16;5065594;28;20047;-79
2023/03/17 02:49:03;;;;;;;9.27;3.20;;;;;;;10.00;100.00;99340.94;5060038;28;20024;-80
2023/03/17 02:51:29;;;;;;;9.35;3.10;;;;;;;10.00;100.00;99342.88;5054121;28;20498;-80
2023/03/17 02:53:54;;;;;;;7.10;3.15;;;;;;;10.00;100.00;99332.63;5059828;28;20039;-79
2023/03/17 02:56:20;;;;;;;11.00;4.25;;;;;;;10.00;100.00;99323.44;5054113;28;20078;-80
2023/03/17 02:58:45;;;;;;;8.55;3.20;;;;;;;9.99;100.00;99316.28;5047832;28;20036;-80
2023/03/17 03:01:11;;;;;;;11.30;3.50;;;;;;;9.98;100.00;99314.66;5056823;27;20024;-81
2023/03/17 03:03:37;;;;;;;6.95;3.53;;;;;;;9.95;100.00;99310.56;5104242;27;20039;-80
2023/03/17 03:06:03;;;;;;;9.60;3.30;;;;;;;9.96;100.00;99312.19;5053598;28;20032;-80
2023/03/17 03:08:28;;;;;;;10.50;3.05;;;;;;;9.97;100.00;99311.06;5091253;27;20034;-80
2023/03/17 03:10:54;;;;;;;10.25;3.20;;;;;;;9.94;100.00;99314.44;5060939;28;20019;-80
2023/03/17 03:13:20;;;;;;;7.47;3.15;;;;;;;9.95;100.00;99313.34;5063456;28;20024;-80
2023/03/17 03:15:46;;;;;;;8.05;3.90;;;;;;;9.93;100.00;99306.47;5080597;28;20024;-80
2023/03/17 03:18:11;;;;;;;7.10;3.13;;;;;;;9.94;100.00;99295.03;5046769;28;20035;-79
2023/03/17 03:20:37;;;;;;;8.55;2.97;;;;;;;9.93;100.00;99285.09;5059022;28;20028;-80
2023/03/17 03:23:02;;;;;;;9.70;3.13;;;;;;;9.93;100.00;99267.63;5083258;28;20028;-80
2023/03/17 03:25:28;;;;;;;8.32;3.10;;;;;;;9.92;100.00;99272.38;5067980;27;20023;-80
2023/03/17 03:27:54;;;;;;;9.55;3.83;;;;;;;9.91;100.00;99265.19;5086883;27;20030;-80
2023/03/17 03:30:19;;;;;;;7.43;3.05;;;;;;;9.92;100.00;99277.94;5071422;27;20028;-80
2023/03/17 03:32:46;;;;;;;9.95;3.20;;;;;;;9.94;100.00;99277.59;5080105;27;20042;-80
2023/03/17 03:35:11;;;;;;;11.70;3.55;;;;;;;9.93;100.00;99273.19;5087263;27;20102;-80
2023/03/17 03:37:37;;;;;;;11.23;3.88;;;;;;;9.93;100.00;99271.22;5063734;28;20031;-80
2023/03/17 03:40:03;;;;;;;9.25;3.55;;;;;;;9.94;100.00;99272.03;5046793;28;20035;-79
2023/03/17 03:42:28;;;;;;;8.35;3.55;;;;;;;9.92;100.00;99280.69;5066183;28;20074;-80
2023/03/17 03:44:54;;;;;;;9.00;4.07;;;;;;;9.92;100.00;99272.38;5073447;28;20028;-80
2023/03/17 03:47:19;;;;;;;10.15;3.60;;;;;;;9.93;100.00;99260.13;5102620;27;20556;-80
2023/03/17 03:49:45;;;;;;;10.40;3.70;;;;;;;9.95;100.00;99257.88;5069545;28;20039;-80
2023/03/17 03:52:10;;;;;;;8.15;3.67;;;;;;;9.97;100.00;99279.72;5071035;27;20030;-80
2023/03/17 03:54:36;;;;;;;13.07;3.70;;;;;;;9.97;100.00;99283.34;5079751;28;20032;-80
2023/03/17 03:57:01;;;;;;;9.30;3.72;;;;;;;9.95;100.00;99293.09;5060749;28;20039;-80
2023/03/17 03:59:28;;;;;;;14.98;4.15;;;;;;;9.97;100.00;99304.69;5072356;27;20023;-80
2023/03/17 04:01:53;;;;;;;7.50;3.50;;;;;;;9.98;100.00;99311.88;5059035;28;20024;-80
2023/03/17 04:04:19;;;;;;;9.20;4.10;;;;;;;9.99;100.00;99311.53;5076278;28;20088;-80
2023/03/17 04:06:45;;;;;;;8.98;3.92;;;;;;;10.00;100.00;99299.34;5089821;27;20045;-80
2023/03/17 04:09:11;;;;;;;8.85;3.53;;;;;;;10.00;100.00;99291.00;5069053;28;20035;-79
2023/03/17 04:11:36;;;;;;;9.82;3.40;;;;;;;10.00;100.00;99296.56;5053503;28;20074;-79
2023/03/17 04:14:02;;;;;;;10.18;3.67;;;;;;;10.02;100.00;99293.44;5089373;27;20023;-80
2023/03/17 04:16:28;;;;;;;11.13;3.47;;;;;;;10.02;100.00;99294.25;5072414;27;20383;-80
2023/03/17 04:18:53;;;;;;;11.98;3.78;;;;;;;10.01;100.00;99303.72;5069321;28;20036;-80
2023/03/17 04:21:20;;;;;;;8.70;3.78;;;;;;;10.01;100.00;99314.00;5088153;27;20027;-80
2023/03/17 04:23:46;;;;;;;10.52;3.65;;;;;;;10.00;100.00;99318.75;5079096;28;20085;-80
2023/03/17 04:26:12;;;;;;;9.23;4.25;;;;;;;9.98;100.00;99322.97;5045298;28;20036;-79
2023/03/17 04:28:38;;;;;;;11.40;3.47;;;;;;;9.99;100.00;99338.47;5078452;28;20081;-80
2023/03/17 04:31:03;;;;;;;9.15;3.72;;;;;;;10.00;100.00;99335.38;5095364;28;20024;-80
2023/03/17 04:33:29;;;;;;;8.55;3.65;;;;;;;9.98;100.00;99334.88;5078685;28;20032;-80
2023/03/17 04:35:55;;;;;;;9.65;4.03;;;;;;;9.97;100.00;99336.03;5087589;27;20030;-79
2023/03/17 04:38:20;;;;;;;8.18;3.65;;;;;;;9.97;100.00;99332.41;5071723;28;20111;-79
2023/03/17 04:40:46;;;;;;;8.82;3.92;;;;;;;9.96;100.00;99339.91;5068720;28;20035;-80
2023/03/17 04:43:11;;;;;;;11.60;3.45;;;;;;;9.95;100.00;99338.31;5094253;27;20506;-80
2023/03/17 04:45:37;;;;;;;8.95;3.97;;;;;;;9.94;100.00;99333.06;5072623;28;20028;-80
2023/03/17 04:48:02;;;;;;;6.93;3.80;;;;;;;9.92;100.00;99322.28;5056498;28;20095;-80
2023/03/17 04:50:28;;;;;;;11.77;4.43;;;;;;;9.91;100.00;99320.63;5097471;28;20031;-81
2023/03/17 04:52:54;;;;;;;8.50;3.80;;;;;;;9.88;100.00;99312.97;5077685;28;20016;-80
2023/03/17 04:55:19;;;;;;;10.35;4.25;;;;;;;9.88;100.00;99326.81;5083150;28;20504;-80
2023/03/17 04:57:45;;;;;;;10.48;4.00;;;;;;;9.88;100.00;99326.81;5081413;28;20630;-80
2023/03/17 05:00:11;;;;;;;10.38;3.50;;;;;;;9.86;100.00;99318.00;5064870;28;20031;-80
2023/03/17 05:02:37;;;;;;;9.05;3.13;;;;;;;9.86;100.00;99323.53;5073770;28;20020;-80
2023/03/17 05:05:03;;;;;;;9.60;3.80;;;;;;;9.85;100.00;99324.69;5064740;28;20110;-80
2023/03/17 05:07:29;;;;;;;7.80;3.40;;;;;;;9.83;100.00;99332.50;5098539;28;20024;-80
2023/03/17 05:09:55;;;;;;;9.57;3.75;;;;;;;9.81;100.00;99318.97;5098196;28;20448;-80
2023/03/17 05:12:21;;;;;;;6.95;3.30;;;;;;;9.81;100.00;99323.72;5064786;28;20024;-80
2023/03/17 05:14:47;;;;;;;7.32;3.35;;;;;;;9.78;100.00;99322.38;5066435;28;20035;-80
2023/03/17 05:17:12;;;;;;;9.48;3.95;;;;;;;9.77;100.00;99325.47;5098034;28;20031;-80
2023/03/17 05:19:38;;;;;;;6.85;3.28;;;;;;;9.77;100.00;99325.47;5081551;28;20032;-81
2023/03/17 05:22:03;;;;;;;7.22;3.20;;;;;;;9.74;100.00;99337.19;5098035;28;20028;-80
2023/03/17 05:24:29;;;;;;;7.97;3.30;;;;;;;9.74;100.00;99340.78;5080734;28;20569;-80
2023/03/17 05:26:54;;;;;;;8.15;4.07;;;;;;;9.73;100.00;99318.94;5073961;28;20035;-80
2023/03/17 05:29:20;;;;;;;8.40;4.10;;;;;;;9.70;100.00;99322.34;5064369;28;20028;-80
2023/03/17 05:31:46;;;;;;;11.65;4.28;;;;;;;9.72;100.00;99328.38;5069814;28;20016;-79
2023/03/17 05:34:11;;;;;;;12.57;5.10;;;;;;;9.70;100.00;99322.34;5095666;28;20032;-80
2023/03/17 05:36:37;;;;;;;8.50;4.28;;;;;;;9.65;100.00;99317.75;5097948;28;20472;-80
2023/03/17 05:39:03;;;;;;;7.18;4.13;;;;;;;9.65;100.00;99316.91;5085212;28;20038;-80
2023/03/17 05:41:28;;;;;;;11.13;4.30;;;;;;;9.67;100.00;99325.72;5077634;28;20027;-80
2023/03/17 05:43:54;;;;;;;9.93;4.47;;;;;;;9.65;100.00;99334.38;5081043;28;20051;-80
2023/03/17 05:46:21;;;;;;;10.73;4.90;;;;;;;9.65;100.00;99326.06;5081362;28;20164;-80
2023/03/17 05:48:46;;;;;;;7.13;4.15;;;;;;;9.64;100.00;99327.19;5084445;27;20595;-79
2023/03/17 05:51:12;;;;;;;10.90;4.47;;;;;;;9.63;100.00;99331.09;5097257;28;20094;-80
2023/03/17 05:53:37;;;;;;;11.45;4.70;;;;;;;9.62;100.00;99329.47;5067238;27;20023;-80
2023/03/17 05:56:03;;;;;;;8.93;4.05;;;;;;;9.61;100.00;99331.41;5084172;27;20023;-80
2023/03/17 05:58:28;;;;;;;11.57;4.63;;;;;;;9.62;100.00;99338.59;5083641;27;20107;-80
2023/03/17 06:00:54;;;;;;;9.32;4.40;;;;;;;9.58;100.00;99329.28;5066881;27;20027;-80
2023/03/17 06:03:21;;;;;;;11.48;4.57;;;;;;;9.59;100.00;99338.41;5067327;27;20122;-80
2023/03/17 06:05:46;;;;;;;8.20;4.53;;;;;;;9.59;100.00;99339.22;5063701;28;20532;-80
2023/03/17 06:08:12;;;;;;;13.30;6.07;;;;;;;9.57;100.00;99333.16;5084194;27;20026;-80
2023/03/17 06:10:38;;;;;;;7.90;4.50;;;;;;;9.59;100.00;99336.44;5084138;28;20027;-80
2023/03/17 06:13:03;;;;;;;12.98;4.82;;;;;;;9.58;100.00;99334.81;5117655;28;20027;-79
2023/03/17 06:15:29;;;;;;;12.75;5.10;;;;;;;9.57;100.00;99338.72;5080256;28;20545;-80
2023/03/17 06:17:54;;;;;;;8.70;4.97;;;;;;;9.56;100.00;99345.41;5100556;28;20118;-80
2023/03/17 06:20:20;;;;;;;7.70;4.38;;;;;;;9.57;100.00;99351.75;5083507;28;20030;-80
2023/03/17 06:22:46;;;;;;;9.07;4.75;;;;;;;9.57;100.00;99349.00;5117510;28;20056;-79
2023/03/17 06:25:11;;;;;;;10.57;4.90;;;;;;;9.58;100.00;99350.63;5083945;28;20027;-80
2023/03/17 06:27:37;;;;;;;11.38;5.13;;;;;;;9.55;100.00;99348.47;5083723;28;20027;-80
2023/03/17 06:30:04;;;;;;;12.93;4.95;;;;;;;9.53;100.00;99337.72;5063293;28;20028;-79
2023/03/17 06:32:30;;;;;;;9.70;4.82;;;;;;;9.53;100.00;99334.94;5066226;28;20023;-81
2023/03/17 06:34:55;;;;;;;10.57;4.80;;;;;;;9.52;100.00;99318.63;5097494;28;20031;-80
2023/03/17 06:37:21;;;;;;;10.82;4.45;;;;;;;9.53;100.00;99331.38;5101281;28;20023;-80
2023/03/17 06:39:47;;;;;;;9.07;4.75;;;;;;;9.53;100.00;99351.59;5088758;27;20027;-80
2023/03/17 06:42:12;;;;;;;9.07;4.57;;;;;;;9.53;100.00;99343.25;5097035;28;20036;-80
2023/03/17 06:44:38;;;;;;;8.75;5.10;;;;;;;9.55;100.00;99337.38;5060124;28;20027;-80
2023/03/17 06:47:03;;;;;;;13.93;5.63;;;;;;;9.52;100.00;99336.06;5083796;27;20055;-80
2023/03/17 06:49:29;;;;;;;9.43;4.57;;;;;;;9.51;100.00;99328.09;5060390;28;20726;-80
2023/03/17 06:51:55;;;;;;;11.50;5.28;;;;;;;9.53;100.00;99328.59;5064694;27;20035;-80
2023/03/17 06:54:23;;;;;;;11.48;4.78;;;;;;;9.52;100.00;99330.53;5067442;28;20028;-80
2023/03/17 06:56:48;;;;;;;8.50;4.45;;;;;;;9.53;100.00;99340.50;5098445;27;20498;-80
2023/03/17 06:59:14;;;;;;;8.23;4.50;;;;;;;9.53;100.00;99334.94;5101046;28;20031;-80
2023/03/17 07:01:39;;;;;;;9.27;5.30;;;;;;;9.54;100.00;99338.53;5076522;28;20031;-80
2023/03/17 07:04:05;;;;;;;7.43;4.35;;;;;;;9.53;100.00;99348.81;5058936;28;20035;-80
2023/03/17 07:06:32;;;;;;;10.35;4.18;;;;;;;9.53;100.00;99350.78;5080371;28;20031;-81
2023/03/17 07:08:57;;;;;;;9.93;4.30;;;;;;;9.52;100.00;99349.13;5098594;28;20495;-80
2023/03/17 07:11:23;;;;;;;8.32;4.20;;;;;;;9.50;100.00;99354.97;5092847;28;20020;-79
2023/03/17 07:13:49;;;;;;;8.43;4.32;;;;;;;9.51;100.00;99359.38;5087109;27;20564;-80
2023/03/17 07:16:17;;;;;;;8.63;4.03;;;;;;;9.52;100.00;99357.44;5101389;27;20066;-80
2023/03/17 07:18:43;;;;;;;10.85;4.63;;;;;;;9.52;100.00;99355.47;5104755;27;20031;-80
2023/03/17 07:21:09;;;;;;;9.63;4.38;;;;;;;9.55;100.00;99356.78;5063598;27;20592;-78
2023/03/17 07:23:34;;;;;;;7.93;3.88;;;;;;;9.55;100.00;99352.06;5080236;28;20031;-79
2023/03/17 07:26:01;;;;;;;11.05;4.38;;;;;;;9.57;100.00;99354.53;5100167;28;20035;-78
2023/03/17 07:28:26;;;;;;;10.50;4.53;;;;;;;9.57;100.00;99355.34;5102391;28;20396;-78
2023/03/17 07:30:52;;;;;;;10.77;4.43;;;;;;;9.57;100.00;99358.13;5097626;28;20031;-78
2023/03/17 07:33:19;;;;;;;11.07;4.82;;;;;;;9.59;100.00;99357.81;5077515;27;20027;-79
2023/03/17 07:35:46;;;;;;;9.98;4.40;;;;;;;9.61;100.00;99366.63;5083598;27;20479;-78
2023/03/17 07:38:11;;;;;;;12.65;4.63;;;;;;;9.61;100.00;99373.00;5085733;27;20390;-79
2023/03/17 07:40:37;;;;;;;9.82;4.32;;;;;;;9.62;100.00;99371.03;5099340;27;20065;-78
2023/03/17 07:43:03;;;;;;;12.00;5.00;;;;;;;9.63;100.00;99378.22;5107974;28;20075;-78
2023/03/17 07:45:29;;;;;;;11.32;4.70;;;;;;;9.65;100.00;99372.38;5081383;28;20055;-78
2023/03/17 07:47:55;;;;;;;13.00;5.25;;;;;;;9.68;100.00;99382.81;5080213;28;20161;-78
2023/03/17 07:50:20;;;;;;;11.15;4.85;;;;;;;9.69;100.00;99384.44;5100367;27;20023;-78
2023/03/17 07:52:46;;;;;;;12.25;4.50;;;;;;;9.69;100.00;99387.22;5090265;27;20027;-78
2023/03/17 07:55:11;;;;;;;14.57;5.50;;;;;;;9.72;100.00;99383.81;5061800;28;20020;-79
2023/03/17 07:57:38;;;;;;;9.15;4.72;;;;;;;9.72;100.00;99383.81;5042152;28;20024;-78
2023/03/17 08:00:12;;;;;;;10.00;4.28;;;;;;;9.74;100.00;99381.56;5083209;27;20031;-79
2023/03/17 08:02:38;;;;;;;14.75;4.95;;;;;;;9.76;100.00;99373.75;5102999;27;20065;-78
2023/03/17 08:05:06;;;;;;;10.68;4.53;;;;;;;9.75;100.00;99366.53;5093482;27;20325;-78
2023/03/17 08:07:32;;;;;;;12.55;5.47;;;;;;;9.79;100.00;99362.03;5097745;27;20034;-79
2023/03/17 08:09:57;;;;;;;13.60;5.57;;;;;;;9.81;100.00;99365.31;5083181;27;20060;-79
2023/03/17 08:12:24;;;;;;;10.60;5.03;;;;;;;9.79;100.00;99362.03;5100834;27;20023;-78
2023/03/17 08:14:49;;;;;;;13.88;5.18;;;;;;;9.80;100.00;99380.28;5097646;27;20436;-78
2023/03/17 08:17:16;;;;;;;12.43;5.05;;;;;;;9.80;100.00;99383.06;5085700;27;20054;-79
2023/03/17 08:19:41;;;;;;;8.63;4.75;;;;;;;9.84;100.00;99392.41;5116279;27;20705;-78
2023/03/17 08:22:07;;;;;;;12.20;5.15;;;;;;;9.85;100.00;99400.38;5068782;27;20019;-78
2023/03/17 08:24:33;;;;;;;9.18;4.38;;;;;;;9.86;100.00;99406.75;5119717;27;20034;-79
2023/03/17 08:26:58;;;;;;;10.13;4.88;;;;;;;9.85;100.00;99407.88;5117607;27;20061;-78
2023/03/17 08:29:24;;;;;;;7.20;4.40;;;;;;;9.87;100.00;99419.50;5080100;27;20100;-78
2023/03/17 08:31:50;;;;;;;8.48;4.28;;;;;;;9.89;100.00;99416.38;5075104;28;20028;-78
2023/03/17 08:34:16;;;;;;;10.05;4.43;;;;;;;9.89;100.00;99422.78;5080310;28;20027;-79
2023/03/17 08:36:41;;;;;;;10.50;4.80;;;;;;;9.91;100.00;99433.53;5088849;28;20039;-78
2023/03/17 08:39:09;;;;;;;11.07;4.75;;;;;;;9.92;100.00;99440.72;5078823;28;20031;-79
2023/03/17 08:41:35;;;;;;;14.35;4.88;;;;;;;9.92;100.00;99436.00;5091233;27;20509;-78
2023/03/17 08:44:01;;;;;;;15.38;5.00;;;;;;;9.93;100.00;99434.84;5103446;27;20031;-79
2023/03/17 08:46:28;;;;;;;14.35;5.07;;;;;;;9.91;100.00;99428.81;5118733;27;20031;-79
2023/03/17 08:48:55;;;;;;;14.13;4.38;;;;;;;9.92;100.00;99433.22;5076381;28;20028;-78
2023/03/17 08:51:21;;;;;;;10.65;5.00;;;;;;;9.95;100.00;99427.06;5077703;27;20107;-79
2023/03/17 08:53:47;;;;;;;10.75;3.85;;;;;;;9.96;100.00;99406.50;5086723;28;20115;-79
2023/03/17 08:56:13;;;;;;;12.10;4.30;;;;;;;9.97;100.00;99401.75;5102239;27;20030;-79
2023/03/17 08:58:39;;;;;;;9.30;4.30;;;;;;;9.99;100.00;99407.81;5082693;28;20106;-78
2023/03/17 09:01:05;;;;;;;10.00;4.55;;;;;;;10.02;100.00;99391.34;5077036;27;20092;-78
2023/03/17 09:03:32;;;;;;;13.90;4.47;;;;;;;10.06;100.00;99384.03;5098462;27;20026;-78
2023/03/17 09:05:58;;;;;;;12.85;4.50;;;;;;;10.11;100.00;99382.25;5081193;28;20035;-78
2023/03/17 09:08:25;;;;;;;15.00;4.90;;;;;;;10.15;100.00;99380.50;5084460;27;20031;-79
2023/03/17 09:10:50;;;;;;;13.05;5.45;;;;;;;10.23;100.00;99369.44;5100676;27;20115;-78
2023/03/17 09:13:16;;;;;;;12.07;4.53;;;;;;;10.30;100.00;99369.00;5064257;28;20032;-78
2023/03/17 09:15:41;;;;;;;10.80;4.93;;;;;;;10.35;100.00;99362.50;5060370;27;20067;-79
2023/03/17 09:18:07;;;;;;;15.77;4.88;;;;;;;10.42;100.00;99358.13;5068415;27;20023;-79
2023/03/17 09:20:33;;;;;;;8.35;4.63;;;;;;;10.50;100.00;99365.66;5081866;27;20049;-78
2023/03/17 09:22:59;;;;;;;11.95;5.13;;;;;;;10.58;100.00;99371.56;5080916;28;20472;-79
2023/03/17 09:25:25;;;;;;;16.15;5.10;;;;;;;10.66;100.00;99370.75;5062801;27;20020;-79
2023/03/17 09:27:50;;;;;;;12.27;4.80;;;;;;;10.73;100.00;99380.25;5063319;28;20077;-79
2023/03/17 09:30:16;;;;;;;13.02;4.88;;;;;;;10.82;100.00;99388.63;5077920;27;20631;-79
2023/03/17 09:32:43;;;;;;;14.77;4.78;;;;;;;10.94;100.00;99399.09;5084675;27;20031;-79
2023/03/17 09:35:09;;;;;;;10.48;4.18;;;;;;;11.10;100.00;99396.69;5081101;28;20106;-79
2023/03/17 09:37:35;;;;;;;11.00;4.45;;;;;;;11.24;100.00;99404.88;5079987;28;20047;-79
2023/03/17 09:40:01;;;;;;;9.68;4.65;;;;;;;11.45;100.00;99405.03;5080076;27;20035;-79
2023/03/17 09:42:26;;;;;;;10.30;3.85;;;;;;;11.62;100.00;99407.84;5126012;27;20035;-79
2023/03/17 09:45:12;;;;;;;13.48;4.82;;;;;;;11.83;100.00;99405.19;5100637;27;20072;-79
2023/03/17 09:47:47;;;;;;;9.27;3.92;;;;;;;12.10;100.00;99406.81;5108517;27;20043;-79
2023/03/17 09:50:16;;;;;;;10.60;4.28;;;;;;;12.32;100.00;99410.53;5100946;27;20031;-79
2023/03/17 09:52:42;;;;;;;12.43;4.35;;;;;;;12.57;100.00;99417.97;5100913;27;20027;-79
2023/03/17 09:55:23;;;;;;;10.32;3.97;;;;;;;12.83;100.00;99430.94;5117935;27;20027;-79
2023/03/17 09:57:49;;;;;;;10.68;4.00;;;;;;;13.08;100.00;99429.97;5088278;28;20023;-80
2023/03/17 10:00:17;;;;;;;11.98;4.88;;;;;;;13.30;100.00;99433.66;5116960;27;20042;-79
2023/03/17 10:02:43;;;;;;;10.63;5.15;;;;;;;13.55;100.00;99435.44;5100532;27;20731;-79
2023/03/17 10:05:12;;;;;;;11.13;4.60;;;;;;;13.74;100.00;99426.59;5100066;27;20035;-79
2023/03/17 10:07:42;;;;;;;9.90;3.67;;;;;;;14.01;100.00;99430.78;5100189;28;20031;-80
2023/03/17 10:10:16;;;;;;;8.55;3.95;;;;;;;14.26;100.00;99420.50;5099668;28;20023;-79
2023/03/17 10:13:00;;;;;;;10.57;3.97;;;;;;;14.47;100.00;99420.41;5082281;28;20024;-79
2023/03/17 10:15:37;;;;;;;11.43;3.85;;;;;;;14.67;100.00;99434.69;5081524;28;20475;-79
2023/03/17 10:18:11;;;;;;;9.15;3.92;;;;;;;14.82;100.00;99439.59;5085230;28;20483;-79
2023/03/17 10:20:43;;;;;;;8.43;3.35;;;;;;;14.96;100.00;99437.25;5100766;28;20024;-79
2023/03/17 10:23:10;;;;;;;8.55;3.90;;;;;;;15.09;100.00;99440.84;5080385;28;20023;-79
2023/03/17 10:25:37;;;;;;;12.20;3.55;;;;;;;15.19;100.00;99450.78;5094692;28;20031;-80
2023/03/17 10:28:22;;;;;;;10.88;3.50;;;;;;;15.28;100.00;99451.44;5094580;28;20055;-79
2023/03/17 10:30:48;;;;;;;9.43;3.75;;;;;;;15.39;100.00;99461.00;5137111;27;20120;-80
2023/03/17 10:33:13;;;;;;;8.30;3.42;;;;;;;15.50;100.00;99454.94;5072759;28;20044;-79
2023/03/17 10:35:39;;;;;;;10.68;3.42;;;;;;;15.58;100.00;99456.78;5109940;28;20027;-79
2023/03/17 10:38:22;;;;;;;12.75;3.92;;;;;;;15.70;100.00;99450.34;5081504;28;20367;-79
2023/03/17 10:40:59;;;;;;;8.68;3.47;;;;;;;15.78;100.00;99444.63;5086705;27;20027;-79
2023/03/17 10:43:29;;;;;;;10.32;3.55;;;;;;;15.86;100.00;99446.44;5097208;28;20027;-80
2023/03/17 10:45:59;;;;;;;9.75;3.42;;;;;;;15.98;100.00;99448.38;5081924;28;20032;-80
2023/03/17 10:48:25;;;;;;;9.93;3.28;;;;;;;16.09;100.00;99437.50;5059394;28;20113;-80
2023/03/17 10:50:51;;;;;;;9.35;3.72;;;;;;;16.25;100.00;99435.53;5055447;28;20032;-80
2023/03/17 10:53:26;;;;;;;7.70;2.97;;;;;;;16.36;100.00;99440.63;5074169;28;20039;-80
2023/03/17 10:55:53;;;;;;;7.80;2.92;;;;;;;16.47;100.00;99436.13;5101610;28;20046;-80
2023/03/17 10:58:19;;;;;;;6.32;2.15;;;;;;;16.60;100.00;99445.25;5085799;28;20030;-80
2023/03/17 11:01:18;;;;;;;11.07;2.58;;;;;;;16.75;100.00;99448.06;5076385;28;20024;-80
2023/03/17 11:03:44;;;;;;;8.30;2.90;;;;;;;16.87;100.00;99449.19;5100839;28;20104;-80
2023/03/17 11:06:11;;;;;;;7.22;2.40;;;;;;;16.95;100.00;99456.63;5085411;27;20022;-80
2023/03/17 11:08:40;;;;;;;7.43;2.58;;;;;;;17.02;100.00;99456.81;5089919;28;20608;-79
2023/03/17 11:11:09;;;;;;;8.63;2.67;;;;;;;17.09;100.00;99456.97;5082660;27;20031;-80
2023/03/17 11:13:35;;;;;;;4.35;2.05;;;;;;;17.20;100.00;99452.41;5091189;28;20031;-82
2023/03/17 11:16:23;;;;;;;7.53;2.25;;;;;;;17.28;100.00;99458.22;5097185;28;20027;-81
2023/03/17 11:18:54;;;;;;;8.40;2.25;;;;;;;17.35;100.00;99461.97;5080317;27;20119;-82
2023/03/17 11:21:23;;;;;;;7.28;2.05;;;;;;;17.44;100.00;99456.19;5080845;28;20052;-82
2023/03/17 11:24:15;;;;;;;7.72;2.58;;;;;;;17.50;100.00;99460.34;5098637;27;20032;-81
2023/03/17 11:27:23;;;;;;;6.38;2.08;;;;;;;17.64;100.00;99451.41;5081017;28;20097;-82